Time;durP1;ratioP1;P1;durP2;ratioP2;P2;SDS_P1;SDS_P2;PMS_P1;PMS_P2;Temp;Humidity;BMP_temperature;BMP_pressure;BME280_temperature;BME280_humidity;BME280_pressure;Samples;Min_cycle;Max_cycle;Signal;HPM_P1;HPM_P2
2023/03/05 00:01:04;;;;;;;110.70;42.40;;;;;;;2.52;nan;98609.66;5030279;28;20806;-56
2023/03/05 00:03:30;;;;;;;112.57;42.97;;;;;;;2.52;nan;98604.59;5029745;28;20052;-57
2023/03/05 00:05:56;;;;;;;109.97;41.97;;;;;;;2.55;nan;98592.00;5030801;28;20311;-56
2023/03/05 00:08:22;;;;;;;109.93;41.87;;;;;;;2.38;nan;98580.84;5032502;28;20033;-56
2023/03/05 00:10:55;;;;;;;110.93;42.27;;;;;;;2.48;nan;98598.66;5032375;28;20276;-57
2023/03/05 00:13:21;;;;;;;110.83;42.27;;;;;;;2.44;nan;98591.88;5031521;28;20069;-59
2023/03/05 00:15:47;;;;;;;111.17;43.07;;;;;;;2.45;nan;98601.16;5030137;28;20846;-58
2023/03/05 00:18:13;;;;;;;109.33;41.60;;;;;;;2.45;nan;98596.09;5031816;28;20049;-56
2023/03/05 00:20:38;;;;;;;109.77;41.53;;;;;;;2.53;nan;98598.72;5033017;28;20382;-57
2023/03/05 00:23:04;;;;;;;110.63;42.53;;;;;;;2.49;nan;98595.31;5028807;28;20038;-58
2023/03/05 00:25:29;;;;;;;110.07;41.80;;;;;;;2.50;nan;98589.44;5029788;28;20352;-58
2023/03/05 00:27:55;;;;;;;111.07;42.37;;;;;;;2.47;nan;98580.94;5031228;28;20068;-57
2023/03/05 00:30:21;;;;;;;111.77;42.77;;;;;;;2.46;nan;98572.47;5031256;28;20492;-56
2023/03/05 00:32:46;;;;;;;110.87;42.47;;;;;;;2.49;nan;98581.81;5028306;28;20369;-57
2023/03/05 00:35:12;;;;;;;109.67;41.63;;;;;;;2.50;nan;98583.50;5027491;28;20185;-56
2023/03/05 00:37:38;;;;;;;107.83;40.13;;;;;;;2.39;nan;98554.69;5037441;28;20049;-57
2023/03/05 00:40:04;;;;;;;110.80;41.80;;;;;;;2.53;nan;98570.91;5029270;28;20051;-57
2023/03/05 00:42:29;;;;;;;112.17;43.47;;;;;;;2.50;nan;98569.19;5027968;28;20531;-56
2023/03/05 00:44:55;;;;;;;111.63;43.37;;;;;;;2.42;nan;98565.69;5025751;28;20307;-57
2023/03/05 00:47:21;;;;;;;112.47;43.13;;;;;;;2.47;nan;98568.28;5034373;28;20080;-56
2023/03/05 00:49:46;;;;;;;112.60;43.50;;;;;;;2.49;nan;98559.91;5026583;28;20030;-58
2023/03/05 00:52:12;;;;;;;113.30;44.23;;;;;;;2.54;nan;98562.47;5025483;28;20045;-56
2023/03/05 00:54:38;;;;;;;112.67;43.10;;;;;;;2.55;nan;98556.56;5029827;28;20041;-57
2023/03/05 00:57:04;;;;;;;112.77;43.67;;;;;;;2.51;nan;98545.56;5031457;28;20065;-59
2023/03/05 00:59:30;;;;;;;112.20;43.10;;;;;;;2.42;nan;98530.28;5027381;28;20053;-59
2023/03/05 01:01:58;;;;;;;112.13;43.47;;;;;;;2.49;nan;98557.38;5026211;28;21019;-56
2023/03/05 01:04:24;;;;;;;114.40;44.27;;;;;;;2.58;nan;98549.03;5026981;28;20390;-58
2023/03/05 01:06:49;;;;;;;111.20;42.10;;;;;;;2.49;nan;98544.72;5031952;28;20312;-58
2023/03/05 01:09:15;;;;;;;111.13;42.00;;;;;;;2.45;nan;98542.97;5029749;28;20026;-56
2023/03/05 01:11:40;;;;;;;112.00;43.73;;;;;;;2.51;nan;98543.03;5024561;28;20048;-57
2023/03/05 01:14:07;;;;;;;110.10;42.03;;;;;;;2.48;nan;98540.47;5030719;28;20301;-58
2023/03/05 01:16:32;;;;;;;110.37;42.03;;;;;;;2.56;nan;98543.09;5031513;28;20038;-57
2023/03/05 01:18:58;;;;;;;124.20;46.53;;;;;;;2.50;nan;98528.72;5029732;28;20335;-59
2023/03/05 01:21:24;;;;;;;110.40;41.17;;;;;;;2.43;nan;98515.94;5032590;28;20088;-55
2023/03/05 01:23:49;;;;;;;108.00;40.00;;;;;;;2.40;nan;98515.91;5028022;28;20071;-56
2023/03/05 01:26:17;;;;;;;110.30;41.83;;;;;;;2.55;nan;98536.31;5031471;28;20045;-57
2023/03/05 01:28:43;;;;;;;108.47;40.87;;;;;;;2.59;nan;98533.03;5030952;28;20496;-56
2023/03/05 01:31:10;;;;;;;108.87;40.70;;;;;;;2.57;nan;98537.19;5028698;28;20299;-57
2023/03/05 01:33:36;;;;;;;110.00;41.70;;;;;;;2.40;nan;98511.72;5036294;28;20047;-56
2023/03/05 01:36:06;;;;;;;109.43;41.17;;;;;;;2.50;nan;98537.97;5037245;28;20293;-59
2023/03/05 01:38:32;;;;;;;108.57;40.97;;;;;;;2.56;nan;98538.88;5029739;28;20455;-57
2023/03/05 01:40:58;;;;;;;109.60;41.13;;;;;;;2.53;nan;98540.53;5030171;28;20295;-56
2023/03/05 01:43:27;;;;;;;112.83;43.53;;;;;;;2.59;nan;98538.91;5031022;28;20059;-59
2023/03/05 01:46:30;;;;;;;113.83;44.93;;;;;;;2.59;nan;98541.44;5025003;28;20575;-56
2023/03/05 01:49:36;;;;;;;111.93;42.97;;;;;;;2.58;nan;98539.75;5026760;28;20271;-55
2023/03/05 01:52:10;;;;;;;111.77;42.13;;;;;;;2.54;nan;98542.25;4988068;28;20308;-57
2023/03/05 01:54:58;;;;;;;110.53;41.63;;;;;;;2.55;nan;98533.78;4987377;28;20292;-55
2023/03/05 01:57:37;;;;;;;111.77;42.70;;;;;;;2.56;nan;98538.88;4988183;28;20750;-58
2023/03/05 02:00:13;;;;;;;110.90;42.10;;;;;;;2.58;nan;98524.56;4969386;28;20327;-56
2023/03/05 02:02:42;;;;;;;111.37;42.33;;;;;;;2.54;nan;98530.44;4987421;28;20424;-60
2023/03/05 02:05:25;;;;;;;111.27;42.63;;;;;;;2.49;nan;98527.00;4986470;28;20336;-58
2023/03/05 02:07:54;;;;;;;110.77;42.27;;;;;;;2.45;nan;98516.84;4990394;28;20852;-56
2023/03/05 02:10:24;;;;;;;110.77;42.40;;;;;;;2.32;nan;98497.28;4986043;28;20292;-54
2023/03/05 02:12:51;;;;;;;111.70;43.10;;;;;;;2.47;nan;98521.06;4987256;28;20834;-54
2023/03/05 02:15:18;;;;;;;111.17;42.37;;;;;;;2.57;nan;98538.06;4988616;28;20447;-59
2023/03/05 02:17:45;;;;;;;112.13;43.03;;;;;;;2.53;nan;98527.88;4978859;28;20336;-56
2023/03/05 02:20:17;;;;;;;111.73;43.73;;;;;;;2.46;nan;98508.41;4966655;28;20293;-54
2023/03/05 02:22:43;;;;;;;112.87;45.03;;;;;;;2.52;nan;98531.22;4992118;28;20385;-56
2023/03/05 02:25:13;;;;;;;111.03;42.93;;;;;;;2.53;nan;98521.16;5028605;28;20791;-55
2023/03/05 02:27:41;;;;;;;111.73;44.13;;;;;;;2.49;nan;98516.03;5026716;28;20557;-55
2023/03/05 02:30:08;;;;;;;109.63;42.63;;;;;;;2.47;nan;98510.94;5025977;28;20753;-54
2023/03/05 02:32:33;;;;;;;109.63;42.67;;;;;;;2.55;nan;98514.41;5014940;28;20290;-57
2023/03/05 02:35:00;;;;;;;109.67;41.97;;;;;;;2.55;nan;98523.66;5028670;28;20300;-55
2023/03/05 02:37:26;;;;;;;112.37;43.27;;;;;;;2.51;nan;98507.63;5034776;28;20466;-55
2023/03/05 02:39:52;;;;;;;113.00;44.00;;;;;;;2.51;nan;98510.13;5033097;28;20398;-56
2023/03/05 02:42:17;;;;;;;113.83;44.63;;;;;;;2.42;nan;98504.16;5030131;28;20041;-56
2023/03/05 02:44:44;;;;;;;111.73;42.73;;;;;;;2.39;nan;98489.78;5032065;28;20060;-57
2023/03/05 02:47:10;;;;;;;111.93;42.97;;;;;;;2.59;nan;98511.06;5032919;28;20361;-55
2023/03/05 02:49:36;;;;;;;111.03;42.00;;;;;;;2.56;nan;98515.25;5021170;28;20291;-54
2023/03/05 02:52:02;;;;;;;111.30;42.90;;;;;;;2.42;nan;98491.50;5012235;28;20300;-56
2023/03/05 02:54:28;;;;;;;112.47;43.20;;;;;;;2.34;nan;98470.31;5034463;28;20045;-57
2023/03/05 02:56:54;;;;;;;111.47;42.87;;;;;;;2.60;nan;98507.72;5038463;28;20123;-57
2023/03/05 02:59:20;;;;;;;111.80;43.50;;;;;;;2.59;nan;98503.47;5035006;28;20315;-56
2023/03/05 03:01:46;;;;;;;112.83;44.30;;;;;;;2.43;nan;98480.53;5028436;28;20296;-56
2023/03/05 03:04:12;;;;;;;112.93;43.93;;;;;;;2.59;nan;98506.00;5027953;28;20046;-57
2023/03/05 03:06:38;;;;;;;112.77;43.87;;;;;;;2.64;nan;98493.41;5031816;28;20075;-56
2023/03/05 03:09:03;;;;;;;111.13;42.67;;;;;;;2.62;nan;98492.56;5030052;28;20116;-57
2023/03/05 03:11:29;;;;;;;112.70;44.23;;;;;;;2.57;nan;98499.25;5029626;28;20051;-55
2023/03/05 03:13:55;;;;;;;112.87;43.90;;;;;;;2.50;nan;98478.09;5032374;28;20304;-56
2023/03/05 03:16:20;;;;;;;114.17;44.73;;;;;;;2.58;nan;98493.38;5028921;28;20042;-54
2023/03/05 03:18:47;;;;;;;109.97;41.43;;;;;;;2.59;nan;98492.53;5033296;28;20407;-55
2023/03/05 03:21:21;;;;;;;111.23;42.40;;;;;;;2.56;nan;98482.34;5032707;28;20053;-56
2023/03/05 03:23:47;;;;;;;110.57;42.40;;;;;;;2.53;nan;98479.81;5036280;28;20308;-56
2023/03/05 03:26:13;;;;;;;111.07;42.80;;;;;;;2.44;nan;98467.91;5033138;28;20638;-56
2023/03/05 03:28:39;;;;;;;111.90;43.53;;;;;;;2.62;nan;98490.03;5030550;28;20045;-55
2023/03/05 03:31:04;;;;;;;112.73;43.30;;;;;;;2.62;nan;98490.03;5030371;28;20077;-55
2023/03/05 03:33:31;;;;;;;110.67;42.23;;;;;;;2.52;nan;98460.38;5032059;28;20045;-57
2023/03/05 03:35:56;;;;;;;111.70;42.93;;;;;;;2.74;nan;98487.63;5032622;28;20116;-56
2023/03/05 03:38:21;;;;;;;111.67;42.87;;;;;;;2.78;nan;98483.41;5030617;28;20294;-57
2023/03/05 03:40:47;;;;;;;110.80;42.60;;;;;;;2.78;nan;98488.47;5032464;28;20042;-56
2023/03/05 03:43:13;;;;;;;112.43;43.37;;;;;;;2.75;nan;98485.09;5032664;28;20046;-57
2023/03/05 03:45:42;;;;;;;111.63;42.37;;;;;;;2.82;nan;98482.63;5033783;28;20456;-57
2023/03/05 03:48:09;;;;;;;111.27;42.43;;;;;;;2.78;nan;98483.41;5032962;28;20512;-55
2023/03/05 03:50:38;;;;;;;112.00;42.63;;;;;;;2.74;nan;98472.44;5032460;28;20303;-56
2023/03/05 03:53:04;;;;;;;112.13;43.10;;;;;;;2.70;nan;98461.44;5031456;28;20865;-56
2023/03/05 03:55:30;;;;;;;111.47;43.03;;;;;;;2.70;nan;98475.75;5031830;28;20789;-57
2023/03/05 03:57:56;;;;;;;111.10;43.50;;;;;;;2.74;nan;98472.44;5032450;28;20468;-57
2023/03/05 04:00:21;;;;;;;111.30;42.60;;;;;;;2.77;nan;98474.97;5032828;28;20354;-57
2023/03/05 04:02:47;;;;;;;110.23;42.70;;;;;;;2.71;nan;98470.72;5031135;28;20438;-58
2023/03/05 04:05:13;;;;;;;111.80;43.83;;;;;;;2.69;nan;98471.53;5031365;28;20071;-59
2023/03/05 04:07:39;;;;;;;111.37;43.47;;;;;;;2.70;nan;98465.63;5033583;28;20162;-57
2023/03/05 04:10:05;;;;;;;110.77;42.57;;;;;;;2.65;nan;98464.75;5031455;28;20112;-57
2023/03/05 04:12:31;;;;;;;110.33;42.93;;;;;;;2.71;nan;98464.81;5031870;28;20049;-57
2023/03/05 04:14:57;;;;;;;110.00;42.43;;;;;;;2.64;nan;98458.81;5027796;28;20345;-57
2023/03/05 04:17:23;;;;;;;110.63;42.07;;;;;;;2.54;nan;98438.50;5030886;28;20304;-57
2023/03/05 04:19:48;;;;;;;110.87;42.97;;;;;;;2.66;nan;98446.19;5032360;28;20036;-56
2023/03/05 04:22:16;;;;;;;109.23;41.67;;;;;;;2.64;nan;98455.44;5032138;28;20045;-56
2023/03/05 04:24:42;;;;;;;110.93;43.17;;;;;;;2.53;nan;98427.53;5033122;28;20056;-56
2023/03/05 04:27:08;;;;;;;111.03;42.10;;;;;;;2.66;nan;98449.59;5028545;28;20774;-57
2023/03/05 04:29:34;;;;;;;111.03;42.17;;;;;;;2.74;nan;98447.13;5029019;28;20326;-54
2023/03/05 04:32:00;;;;;;;111.00;42.17;;;;;;;2.68;nan;98442.84;5031272;28;20048;-58
2023/03/05 04:34:25;;;;;;;111.80;43.37;;;;;;;2.71;nan;98439.50;5031418;28;20299;-59
2023/03/05 04:36:51;;;;;;;112.40;43.30;;;;;;;2.72;nan;98439.50;5028385;28;20113;-58
2023/03/05 04:39:19;;;;;;;112.37;43.43;;;;;;;2.63;nan;98434.34;5031804;28;20052;-59
2023/03/05 04:41:46;;;;;;;112.27;43.17;;;;;;;2.68;nan;98429.34;5030607;28;20064;-59
2023/03/05 04:44:12;;;;;;;112.03;43.93;;;;;;;2.65;nan;98432.69;5026131;28;20294;-58
2023/03/05 04:46:38;;;;;;;111.23;42.53;;;;;;;2.66;nan;98434.41;5031348;28;20678;-58
2023/03/05 04:49:03;;;;;;;110.97;42.43;;;;;;;2.66;nan;98436.09;5033758;28;20128;-58
2023/03/05 04:51:29;;;;;;;110.67;42.13;;;;;;;2.58;nan;98432.63;5030877;28;20055;-59
2023/03/05 04:53:54;;;;;;;111.43;42.70;;;;;;;2.57;nan;98425.88;5030288;28;20132;-58
2023/03/05 04:56:20;;;;;;;111.73;43.10;;;;;;;2.58;nan;98430.09;5031555;28;20033;-59
2023/03/05 04:58:46;;;;;;;111.57;43.23;;;;;;;2.52;nan;98430.03;5029839;28;20493;-59
2023/03/05 05:01:12;;;;;;;111.30;42.80;;;;;;;2.53;nan;98436.78;5029796;28;20480;-59
2023/03/05 05:03:37;;;;;;;110.30;42.63;;;;;;;2.47;nan;98436.72;5030391;28;20354;-59
2023/03/05 05:06:03;;;;;;;114.80;45.87;;;;;;;2.47;nan;98431.66;5033896;28;20053;-58
2023/03/05 05:08:29;;;;;;;112.67;43.07;;;;;;;2.44;nan;98427.44;5032304;28;20650;-57
2023/03/05 05:11:00;;;;;;;110.73;42.63;;;;;;;2.48;nan;98430.84;5031058;28;20591;-57
2023/03/05 05:13:28;;;;;;;111.33;43.97;;;;;;;2.49;nan;98430.88;5029365;28;20107;-58
2023/03/05 05:15:53;;;;;;;108.47;41.33;;;;;;;2.50;nan;98421.59;5030857;28;20703;-57
2023/03/05 05:18:19;;;;;;;107.97;41.27;;;;;;;2.39;nan;98405.44;5033219;28;20949;-60
2023/03/05 05:20:46;;;;;;;108.60;41.13;;;;;;;2.46;nan;98414.81;5032464;28;20110;-57
2023/03/05 05:23:12;;;;;;;109.17;41.13;;;;;;;2.59;nan;98425.03;5033539;28;20298;-58
2023/03/05 05:25:37;;;;;;;108.37;40.53;;;;;;;2.56;nan;98435.13;5032974;28;20647;-58
2023/03/05 05:28:04;;;;;;;110.57;42.23;;;;;;;2.52;nan;98435.94;5029267;28;20060;-59
2023/03/05 05:30:30;;;;;;;111.67;43.63;;;;;;;2.57;nan;98428.41;5030269;28;20044;-57
2023/03/05 05:32:56;;;;;;;109.17;41.40;;;;;;;2.57;nan;98438.53;5030348;28;20322;-55
2023/03/05 05:35:21;;;;;;;111.10;41.90;;;;;;;2.56;nan;98441.88;5029427;28;20601;-58
2023/03/05 05:37:47;;;;;;;108.33;41.93;;;;;;;2.56;nan;98431.75;5029188;28;20424;-58
2023/03/05 05:40:13;;;;;;;111.40;42.67;;;;;;;2.54;nan;98441.03;5027646;28;20411;-59
2023/03/05 05:42:39;;;;;;;112.00;43.47;;;;;;;2.55;nan;98441.03;5027795;28;20038;-59
2023/03/05 05:45:05;;;;;;;107.23;40.50;;;;;;;2.49;nan;98428.34;5027406;28;20030;-59
2023/03/05 05:47:31;;;;;;;111.33;43.13;;;;;;;2.54;nan;98441.03;5024805;28;20072;-59
2023/03/05 05:49:57;;;;;;;111.40;43.87;;;;;;;2.52;nan;98446.06;5028325;28;20386;-59
2023/03/05 05:52:23;;;;;;;114.03;44.63;;;;;;;2.52;nan;98437.63;5031351;28;20528;-62
2023/03/05 05:54:48;;;;;;;111.60;44.00;;;;;;;2.50;nan;98436.78;5025990;28;20060;-59
2023/03/05 05:57:14;;;;;;;113.77;42.33;;;;;;;2.42;nan;98416.44;5027963;28;20049;-59
2023/03/05 05:59:40;;;;;;;114.80;43.37;;;;;;;2.47;nan;98424.94;5028920;28;20492;-60
2023/03/05 06:02:06;;;;;;;109.87;41.57;;;;;;;2.50;nan;98435.09;5027469;28;20521;-59
2023/03/05 06:04:34;;;;;;;99.90;36.17;;;;;;;2.38;nan;98417.25;5030523;28;20478;-59
2023/03/05 06:07:00;;;;;;;109.80;42.17;;;;;;;2.52;nan;98437.63;5035152;28;20299;-58
2023/03/05 06:09:26;;;;;;;107.27;39.97;;;;;;;2.53;nan;98422.47;5028249;28;20664;-59
2023/03/05 06:11:52;;;;;;;107.83;40.73;;;;;;;2.61;nan;98425.06;5030465;28;20049;-58
2023/03/05 06:14:18;;;;;;;108.20;41.40;;;;;;;2.64;nan;98436.06;5031619;28;20864;-59
2023/03/05 06:16:43;;;;;;;108.93;41.70;;;;;;;2.73;nan;98433.59;5031427;28;20834;-59
2023/03/05 06:19:14;;;;;;;111.33;42.60;;;;;;;2.79;nan;98424.38;5032195;28;20037;-59
2023/03/05 06:21:41;;;;;;;111.00;42.03;;;;;;;2.70;nan;98420.94;5031140;28;20051;-59
2023/03/05 06:24:08;;;;;;;111.87;42.37;;;;;;;2.72;nan;98420.94;5033543;28;20398;-60
2023/03/05 06:26:34;;;;;;;113.00;43.67;;;;;;;2.78;nan;98426.06;5032648;28;20342;-59
2023/03/05 06:29:00;;;;;;;112.03;43.80;;;;;;;2.83;nan;98426.94;5028074;28;20303;-59
2023/03/05 06:31:27;;;;;;;112.90;43.43;;;;;;;2.82;nan;98422.72;5031614;28;20035;-59
2023/03/05 06:34:00;;;;;;;112.43;43.87;;;;;;;2.86;nan;98423.59;5033328;28;20064;-58
2023/03/05 06:36:26;;;;;;;114.10;44.10;;;;;;;2.80;nan;98418.50;5028675;28;20768;-59
2023/03/05 06:38:52;;;;;;;112.57;42.93;;;;;;;2.74;nan;98396.50;5032017;28;20304;-59
2023/03/05 06:41:21;;;;;;;110.83;42.70;;;;;;;2.85;nan;98415.13;5040413;28;20319;-58
2023/03/05 06:43:47;;;;;;;111.27;42.60;;;;;;;2.98;nan;98416.94;5029910;28;20287;-59
2023/03/05 06:46:19;;;;;;;110.50;42.20;;;;;;;2.97;nan;98409.34;5031310;28;20331;-58
2023/03/05 06:48:45;;;;;;;110.67;42.90;;;;;;;3.03;nan;98412.75;5032352;28;20728;-59
2023/03/05 06:51:15;;;;;;;108.17;42.10;;;;;;;3.13;nan;98426.34;5031176;28;20283;-58
2023/03/05 06:53:40;;;;;;;107.87;42.73;;;;;;;3.18;nan;98422.97;5031446;28;20360;-58
2023/03/05 06:56:06;;;;;;;109.17;44.97;;;;;;;3.30;nan;98434.91;5034179;28;20292;-58
2023/03/05 06:58:31;;;;;;;105.63;41.30;;;;;;;3.17;nan;98418.78;5031636;28;20080;-57
2023/03/05 07:00:57;;;;;;;108.77;42.23;;;;;;;3.22;nan;98436.53;5034550;28;20467;-59
2023/03/05 07:03:23;;;;;;;111.60;45.10;;;;;;;3.20;nan;98407.81;5031323;28;20557;-59
2023/03/05 07:05:48;;;;;;;111.73;43.63;;;;;;;3.30;nan;98414.63;5034392;28;20060;-59
2023/03/05 07:08:14;;;;;;;110.27;42.93;;;;;;;3.42;nan;98424.84;5033609;28;20040;-57
2023/03/05 07:10:42;;;;;;;110.93;45.00;;;;;;;3.51;nan;98419.81;5031813;28;20583;-57
2023/03/05 07:13:08;;;;;;;109.90;43.30;;;;;;;3.52;nan;98423.22;5028127;28;20083;-62
2023/03/05 07:15:38;;;;;;;110.60;44.60;;;;;;;3.47;nan;98418.13;5029191;28;20298;-56
2023/03/05 07:18:04;;;;;;;110.93;44.10;;;;;;;3.41;nan;98397.78;5027545;28;20349;-56
2023/03/05 07:20:33;;;;;;;104.33;41.60;;;;;;;3.57;nan;98427.44;5030148;28;20753;-59
2023/03/05 07:22:59;;;;;;;119.90;46.23;;;;;;;3.62;nan;98427.47;5029345;28;20946;-59
2023/03/05 07:25:25;;;;;;;120.47;45.27;;;;;;;3.54;nan;98408.84;5029594;28;20737;-57
2023/03/05 07:27:50;;;;;;;122.23;48.77;;;;;;;3.68;nan;98423.28;5030500;28;20680;-58
2023/03/05 07:30:17;;;;;;;124.17;48.20;;;;;;;3.68;nan;98424.97;5029442;28;20297;-57
2023/03/05 07:32:42;;;;;;;119.13;45.17;;;;;;;3.68;nan;98415.69;5029724;28;20061;-56
2023/03/05 07:35:08;;;;;;;121.37;46.47;;;;;;;3.72;nan;98418.22;5029064;28;20781;-59
2023/03/05 07:37:34;;;;;;;116.23;44.47;;;;;;;3.75;nan;98429.22;5026809;28;20042;-60
2023/03/05 07:40:00;;;;;;;112.97;44.83;;;;;;;3.76;nan;98404.72;5028021;28;20288;-57
2023/03/05 07:42:25;;;;;;;110.77;43.73;;;;;;;3.75;nan;98420.78;5027475;28;20050;-57
2023/03/05 07:45:06;;;;;;;111.33;44.40;;;;;;;3.92;nan;98424.22;5020713;28;20038;-58
2023/03/05 07:47:31;;;;;;;110.03;42.80;;;;;;;3.93;nan;98436.06;5029539;28;20311;-59
2023/03/05 07:49:57;;;;;;;107.30;42.83;;;;;;;3.82;nan;98435.19;5023245;28;20337;-61
2023/03/05 07:52:23;;;;;;;110.27;46.13;;;;;;;3.98;nan;98426.78;5028297;28;20041;-56
2023/03/05 07:54:52;;;;;;;115.70;45.23;;;;;;;4.02;nan;98433.56;5027472;28;20343;-55
2023/03/05 07:57:18;;;;;;;113.17;45.63;;;;;;;3.83;nan;98398.81;5031310;28;20076;-56
2023/03/05 07:59:43;;;;;;;110.50;43.70;;;;;;;3.90;nan;98400.56;5029428;28;20936;-57
2023/03/05 08:02:11;;;;;;;110.80;43.53;;;;;;;4.04;nan;98429.34;5031351;28;20045;-58
2023/03/05 08:04:37;;;;;;;113.97;44.17;;;;;;;4.04;nan;98419.19;5028348;28;20480;-56
2023/03/05 08:07:03;;;;;;;115.97;43.90;;;;;;;3.96;nan;98398.88;5019240;28;21089;-56
2023/03/05 08:09:29;;;;;;;115.37;46.10;;;;;;;3.92;nan;98387.03;5029614;28;20291;-57
2023/03/05 08:11:55;;;;;;;112.00;43.70;;;;;;;4.11;nan;98419.25;5029560;28;20287;-57
2023/03/05 08:14:21;;;;;;;110.27;43.13;;;;;;;4.22;nan;98419.25;5028738;28;20319;-58
2023/03/05 08:16:51;;;;;;;107.60;42.30;;;;;;;4.22;nan;98421.78;5029038;28;20111;-59
2023/03/05 08:19:18;;;;;;;109.63;43.87;;;;;;;4.36;nan;98414.22;5028778;28;20322;-58
2023/03/05 08:21:45;;;;;;;109.23;43.27;;;;;;;4.40;nan;98405.78;5027106;28;20801;-61
2023/03/05 08:24:12;;;;;;;109.43;43.43;;;;;;;4.43;nan;98410.84;5028826;28;20296;-59
2023/03/05 08:26:39;;;;;;;110.80;44.90;;;;;;;4.40;nan;98395.63;5030336;28;20284;-57
2023/03/05 08:29:06;;;;;;;70.67;37.33;;;;;;;4.36;nan;98389.69;5034432;28;20675;-57
2023/03/05 08:31:32;;;;;;;26.77;24.77;;;;;;;4.59;nan;98413.41;5029583;28;20766;-58
2023/03/05 08:34:00;;;;;;;11.23;8.47;;;;;;;4.76;nan;98405.78;5027927;28;20430;-58
2023/03/05 08:36:26;;;;;;;23.43;11.60;;;;;;;4.48;nan;98402.41;5028942;28;20424;-58
2023/03/05 08:38:52;;;;;;;21.07;12.50;;;;;;;4.50;nan;98408.31;5027951;28;20113;-60
2023/03/05 08:41:18;;;;;;;16.57;15.37;;;;;;;4.58;nan;98406.63;5029746;28;20045;-58
2023/03/05 08:43:44;;;;;;;26.67;24.57;;;;;;;4.57;nan;98410.03;5027981;28;20399;-57
2023/03/05 08:46:14;;;;;;;22.97;18.67;;;;;;;4.62;nan;98406.66;5031714;28;20049;-57
2023/03/05 08:48:40;;;;;;;52.63;27.13;;;;;;;4.47;nan;98412.53;5027890;28;20068;-58
2023/03/05 08:51:11;;;;;;;38.87;15.60;;;;;;;4.42;nan;98409.13;5028600;28;20048;-58
2023/03/05 08:53:38;;;;;;;119.53;45.90;;;;;;;4.51;nan;98410.00;5027906;28;20072;-57
2023/03/05 08:56:04;;;;;;;71.53;26.37;;;;;;;4.56;nan;98408.31;5029101;28;20319;-58
2023/03/05 08:58:31;;;;;;;104.77;42.07;;;;;;;4.75;nan;98405.81;5027670;28;20040;-58
2023/03/05 09:00:56;;;;;;;77.03;27.23;;;;;;;4.59;nan;98393.09;5028332;28;20303;-57
2023/03/05 09:03:22;;;;;;;121.70;46.33;;;;;;;4.82;nan;98412.56;5027566;28;20416;-58
2023/03/05 09:05:48;;;;;;;70.90;26.47;;;;;;;4.72;nan;98393.09;5029173;28;20041;-57
2023/03/05 09:08:14;;;;;;;112.57;45.63;;;;;;;4.80;nan;98409.19;5028791;28;20025;-57
2023/03/05 09:10:41;;;;;;;82.97;30.07;;;;;;;4.75;nan;98408.34;5022735;28;20107;-58
2023/03/05 09:13:07;;;;;;;85.77;32.23;;;;;;;4.71;nan;98404.94;5025802;28;20040;-58
2023/03/05 09:15:33;;;;;;;109.17;41.20;;;;;;;4.89;nan;98409.19;5024486;28;20144;-58
2023/03/05 09:17:58;;;;;;;88.93;32.63;;;;;;;4.70;nan;98387.19;5026860;28;20576;-56
2023/03/05 09:20:24;;;;;;;105.10;39.70;;;;;;;4.95;nan;98396.50;5027875;28;20041;-56
2023/03/05 09:22:50;;;;;;;73.03;26.93;;;;;;;4.89;nan;98399.03;5028003;28;20068;-57
2023/03/05 09:25:15;;;;;;;90.67;34.20;;;;;;;4.90;nan;98408.34;5024071;28;20033;-58
2023/03/05 09:27:42;;;;;;;78.93;29.73;;;;;;;5.00;nan;98407.50;5025786;28;20131;-58
2023/03/05 09:30:09;;;;;;;74.63;28.87;;;;;;;4.73;nan;98390.56;5027743;28;20036;-58
2023/03/05 09:32:35;;;;;;;35.90;11.60;;;;;;;4.98;nan;98411.72;5020934;28;20041;-59
2023/03/05 09:35:01;;;;;;;76.77;28.50;;;;;;;5.03;nan;98404.94;5020681;28;20110;-58
2023/03/05 09:37:28;;;;;;;44.43;18.60;;;;;;;4.99;nan;98408.34;5025150;28;20043;-58
2023/03/05 09:39:54;;;;;;;28.10;11.93;;;;;;;4.99;nan;98408.34;5025645;28;20057;-59
2023/03/05 09:42:28;;;;;;;15.27;10.20;;;;;;;5.09;nan;98404.97;5027680;28;20203;-59
2023/03/05 09:45:13;;;;;;;8.90;7.57;;;;;;;5.17;nan;98392.25;5027037;28;20337;-58
2023/03/05 09:48:10;;;;;;;18.27;11.17;;;;;;;5.17;nan;98407.47;5028169;28;20077;-58
2023/03/05 09:51:00;;;;;;;13.13;11.37;;;;;;;5.08;nan;98377.84;5026201;28;20389;-57
2023/03/05 09:54:00;;;;;;;14.17;13.03;;;;;;;5.08;nan;98380.41;5025986;28;20045;-58
2023/03/05 09:56:30;;;;;;;10.03;9.23;;;;;;;5.47;nan;98382.81;5023845;28;20041;-60
2023/03/05 09:59:34;;;;;;;14.80;13.60;;;;;;;5.56;nan;98402.28;5025834;28;20053;-59
2023/03/05 10:02:11;;;;;;;14.83;9.77;;;;;;;5.34;nan;98424.41;5025117;28;20519;-60
2023/03/05 10:04:45;;;;;;;13.47;12.47;;;;;;;4.84;nan;98372.78;5027417;28;20094;-59
2023/03/05 10:07:15;;;;;;;16.07;14.43;;;;;;;4.67;nan;98384.66;5025856;28;20302;-59
2023/03/05 10:09:58;;;;;;;18.90;17.47;;;;;;;4.97;nan;98385.47;5021865;28;20315;-57
2023/03/05 10:12:49;;;;;;;19.73;17.90;;;;;;;4.69;nan;98404.09;5027003;28;20285;-57
2023/03/05 10:15:29;;;;;;;13.93;12.83;;;;;;;4.81;nan;98390.56;5027109;28;20291;-59
2023/03/05 10:18:05;;;;;;;10.07;9.33;;;;;;;4.80;nan;98391.41;5026699;28;20317;-58
2023/03/05 10:20:52;;;;;;;16.10;14.90;;;;;;;4.89;nan;98361.78;5026908;28;20326;-59
2023/03/05 10:23:23;;;;;;;15.10;13.80;;;;;;;5.10;nan;98396.47;5027553;28;20288;-58
2023/03/05 10:26:08;;;;;;;16.37;14.93;;;;;;;5.04;nan;98394.78;5026900;28;20295;-58
2023/03/05 10:28:52;;;;;;;13.03;11.93;;;;;;;4.89;nan;98366.00;5027543;28;20354;-59
2023/03/05 10:31:33;;;;;;;15.30;13.87;;;;;;;5.15;nan;98394.78;5026608;28;21379;-59
2023/03/05 10:34:22;;;;;;;28.70;18.90;;;;;;;5.12;nan;98388.84;5027570;28;20284;-60
2023/03/05 10:36:50;;;;;;;15.27;14.27;;;;;;;5.17;nan;98379.53;5027447;28;20639;-59
2023/03/05 10:39:31;;;;;;;17.67;16.37;;;;;;;4.95;nan;98386.34;5027425;28;20287;-59
2023/03/05 10:42:04;;;;;;;13.90;13.00;;;;;;;5.00;nan;98379.56;5027379;28;20310;-60
2023/03/05 10:44:43;;;;;;;13.70;12.73;;;;;;;4.89;nan;98376.16;5028307;28;21203;-58
2023/03/05 10:47:39;;;;;;;14.07;13.03;;;;;;;4.97;nan;98377.00;5027794;28;20310;-63
2023/03/05 10:50:18;;;;;;;16.30;14.93;;;;;;;4.89;nan;98371.09;5025825;28;20768;-60
2023/03/05 10:52:50;;;;;;;12.93;11.87;;;;;;;5.05;nan;98365.97;5025937;28;20283;-57
2023/03/05 10:55:19;;;;;;;14.83;13.20;;;;;;;5.19;nan;98373.59;5027880;28;20314;-58
2023/03/05 10:57:46;;;;;;;17.67;13.27;;;;;;;5.15;nan;98364.28;5027553;28;20230;-57
2023/03/05 11:00:26;;;;;;;21.23;14.23;;;;;;;5.07;nan;98368.53;5029351;28;20485;-58
2023/03/05 11:03:05;;;;;;;14.67;10.97;;;;;;;5.06;nan;98344.81;5038595;28;20053;-57
2023/03/05 11:05:37;;;;;;;11.37;10.33;;;;;;;5.41;nan;98356.59;5032844;28;20037;-57
2023/03/05 11:08:23;;;;;;;12.33;11.40;;;;;;;5.44;nan;98349.81;5029830;28;20064;-58
2023/03/05 11:11:13;;;;;;;14.97;13.67;;;;;;;5.33;nan;98346.47;5027718;28;20041;-58
2023/03/05 11:14:01;;;;;;;10.00;9.07;;;;;;;5.47;nan;98342.16;5027555;28;20041;-58
2023/03/05 11:16:34;;;;;;;11.82;11.07;;;;;;;5.44;nan;98314.22;5030461;28;20579;-58
2023/03/05 11:19:20;;;;;;;14.82;13.82;;;;;;;5.56;nan;98345.53;5028789;28;20114;-59
2023/03/05 11:22:22;;;;;;;15.73;14.55;;;;;;;5.43;nan;98332.03;5030293;28;20480;-59
2023/03/05 11:25:04;;;;;;;17.92;16.55;;;;;;;5.58;nan;98331.09;5025823;28;20064;-59
2023/03/05 11:27:38;;;;;;;13.68;12.70;;;;;;;5.48;nan;98348.94;5021118;28;20033;-60
2023/03/05 11:30:18;;;;;;;13.57;12.37;;;;;;;5.33;nan;98317.66;5030444;28;20049;-59
2023/03/05 11:32:44;;;;;;;13.48;12.48;;;;;;;5.59;nan;98322.63;5027563;28;20298;-59
2023/03/05 11:35:30;;;;;;;15.03;13.90;;;;;;;5.68;nan;98315.81;5026443;28;20041;-59
2023/03/05 11:38:04;;;;;;;14.17;13.20;;;;;;;5.46;nan;98311.69;5026972;28;20041;-56
2023/03/05 11:40:36;;;;;;;15.10;14.13;;;;;;;5.79;nan;98306.44;5028314;28;20500;-60
2023/03/05 11:43:04;;;;;;;17.67;16.25;;;;;;;6.07;nan;98299.50;5025757;28;20033;-58
2023/03/05 11:45:31;;;;;;;15.82;14.70;;;;;;;5.74;nan;98294.59;5025942;28;20076;-58